sensor_id;sensor_type;location;lat;lon;timestamp;P1;durP1;ratioP1;P2;durP2;ratioP2
8803;SDS011;4438;50.890;4.726;2023-06-14T00:01:39;7.73;;;7.03;;
8803;SDS011;4438;50.890;4.726;2023-06-14T00:04:05;7.83;;;7.13;;
8803;SDS011;4438;50.890;4.726;2023-06-14T00:06:33;7.40;;;6.80;;
8803;SDS011;4438;50.890;4.726;2023-06-14T00:08:59;8.43;;;7.63;;
8803;SDS011;4438;50.890;4.726;2023-06-14T00:11:26;8.10;;;7.30;;
8803;SDS011;4438;50.890;4.726;2023-06-14T00:13:52;7.40;;;6.70;;
8803;SDS011;4438;50.890;4.726;2023-06-14T00:16:18;7.77;;;7.10;;
8803;SDS011;4438;50.890;4.726;2023-06-14T00:18:45;8.30;;;7.70;;
8803;SDS011;4438;50.890;4.726;2023-06-14T00:21:11;7.43;;;6.73;;
8803;SDS011;4438;50.890;4.726;2023-06-14T00:23:37;7.63;;;6.97;;
8803;SDS011;4438;50.890;4.726;2023-06-14T00:26:03;8.17;;;7.53;;
8803;SDS011;4438;50.890;4.726;2023-06-14T00:28:29;7.90;;;7.20;;
8803;SDS011;4438;50.890;4.726;2023-06-14T00:30:55;7.50;;;6.90;;
8803;SDS011;4438;50.890;4.726;2023-06-14T00:33:21;7.43;;;6.83;;
8803;SDS011;4438;50.890;4.726;2023-06-14T00:35:47;7.90;;;7.20;;
8803;SDS011;4438;50.890;4.726;2023-06-14T00:38:14;8.00;;;7.37;;
8803;SDS011;4438;50.890;4.726;2023-06-14T00:40:40;8.93;;;7.57;;
8803;SDS011;4438;50.890;4.726;2023-06-14T00:43:06;8.23;;;7.53;;
8803;SDS011;4438;50.890;4.726;2023-06-14T00:45:32;8.53;;;7.83;;
8803;SDS011;4438;50.890;4.726;2023-06-14T00:48:01;8.10;;;7.40;;
8803;SDS011;4438;50.890;4.726;2023-06-14T00:50:27;7.37;;;6.77;;
8803;SDS011;4438;50.890;4.726;2023-06-14T00:52:55;7.93;;;7.13;;
8803;SDS011;4438;50.890;4.726;2023-06-14T00:55:21;7.83;;;7.10;;
8803;SDS011;4438;50.890;4.726;2023-06-14T00:57:47;8.03;;;7.37;;
8803;SDS011;4438;50.890;4.726;2023-06-14T01:00:14;8.23;;;7.43;;
8803;SDS011;4438;50.890;4.726;2023-06-14T01:02:40;7.63;;;7.03;;
8803;SDS011;4438;50.890;4.726;2023-06-14T01:05:07;7.93;;;7.27;;
8803;SDS011;4438;50.890;4.726;2023-06-14T01:15:04;7.73;;;7.13;;
8803;SDS011;4438;50.890;4.726;2023-06-14T01:17:31;8.33;;;7.57;;
8803;SDS011;4438;50.890;4.726;2023-06-14T01:19:58;7.90;;;7.30;;
8803;SDS011;4438;50.890;4.726;2023-06-14T01:22:26;8.07;;;7.47;;
8803;SDS011;4438;50.890;4.726;2023-06-14T01:24:52;8.73;;;7.83;;
8803;SDS011;4438;50.890;4.726;2023-06-14T01:27:29;8.47;;;7.77;;
8803;SDS011;4438;50.890;4.726;2023-06-14T01:29:57;9.60;;;8.60;;
8803;SDS011;4438;50.890;4.726;2023-06-14T01:32:24;9.60;;;8.70;;
8803;SDS011;4438;50.890;4.726;2023-06-14T01:34:51;9.40;;;8.60;;
8803;SDS011;4438;50.890;4.726;2023-06-14T01:37:18;9.17;;;8.37;;
8803;SDS011;4438;50.890;4.726;2023-06-14T01:39:45;9.57;;;8.67;;
8803;SDS011;4438;50.890;4.726;2023-06-14T01:42:11;10.47;;;9.57;;
8803;SDS011;4438;50.890;4.726;2023-06-14T01:44:39;9.70;;;8.90;;
8803;SDS011;4438;50.890;4.726;2023-06-14T01:47:05;9.77;;;8.97;;
8803;SDS011;4438;50.890;4.726;2023-06-14T01:49:35;10.50;;;9.50;;
8803;SDS011;4438;50.890;4.726;2023-06-14T01:52:01;9.83;;;9.03;;
8803;SDS011;4438;50.890;4.726;2023-06-14T01:54:27;10.20;;;9.27;;
8803;SDS011;4438;50.890;4.726;2023-06-14T01:56:54;9.83;;;9.03;;
8803;SDS011;4438;50.890;4.726;2023-06-14T01:59:21;9.93;;;9.13;;
8803;SDS011;4438;50.890;4.726;2023-06-14T02:01:47;11.30;;;10.33;;
8803;SDS011;4438;50.890;4.726;2023-06-14T02:04:13;9.97;;;9.13;;
8803;SDS011;4438;50.890;4.726;2023-06-14T02:06:39;10.00;;;9.17;;
8803;SDS011;4438;50.890;4.726;2023-06-14T02:09:05;11.70;;;10.27;;
8803;SDS011;4438;50.890;4.726;2023-06-14T02:11:32;10.43;;;9.43;;
8803;SDS011;4438;50.890;4.726;2023-06-14T02:13:58;10.47;;;9.50;;
8803;SDS011;4438;50.890;4.726;2023-06-14T02:16:25;10.17;;;9.20;;
8803;SDS011;4438;50.890;4.726;2023-06-14T02:18:53;10.50;;;9.60;;
8803;SDS011;4438;50.890;4.726;2023-06-14T02:21:19;10.17;;;9.27;;
8803;SDS011;4438;50.890;4.726;2023-06-14T02:23:45;10.20;;;9.30;;
8803;SDS011;4438;50.890;4.726;2023-06-14T02:26:11;10.70;;;9.80;;
8803;SDS011;4438;50.890;4.726;2023-06-14T02:28:37;10.00;;;9.20;;
8803;SDS011;4438;50.890;4.726;2023-06-14T02:31:03;10.57;;;9.67;;
8803;SDS011;4438;50.890;4.726;2023-06-14T02:33:29;10.53;;;9.10;;
8803;SDS011;4438;50.890;4.726;2023-06-14T02:35:55;9.77;;;9.03;;
8803;SDS011;4438;50.890;4.726;2023-06-14T02:38:22;9.93;;;9.13;;
8803;SDS011;4438;50.890;4.726;2023-06-14T02:40:48;10.17;;;9.27;;
8803;SDS011;4438;50.890;4.726;2023-06-14T02:43:14;10.53;;;9.60;;
8803;SDS011;4438;50.890;4.726;2023-06-14T02:45:42;9.93;;;9.10;;
8803;SDS011;4438;50.890;4.726;2023-06-14T02:48:08;10.23;;;9.23;;
8803;SDS011;4438;50.890;4.726;2023-06-14T02:50:34;10.67;;;9.80;;
8803;SDS011;4438;50.890;4.726;2023-06-14T02:53:00;10.17;;;9.27;;
8803;SDS011;4438;50.890;4.726;2023-06-14T02:55:27;10.23;;;9.37;;
8803;SDS011;4438;50.890;4.726;2023-06-14T02:57:54;11.60;;;10.50;;
8803;SDS011;4438;50.890;4.726;2023-06-14T03:00:20;9.73;;;8.93;;
8803;SDS011;4438;50.890;4.726;2023-06-14T03:02:46;11.47;;;10.37;;
8803;SDS011;4438;50.890;4.726;2023-06-14T03:05:12;11.53;;;10.43;;
8803;SDS011;4438;50.890;4.726;2023-06-14T03:07:39;10.53;;;9.53;;
8803;SDS011;4438;50.890;4.726;2023-06-14T03:10:07;10.17;;;9.37;;
8803;SDS011;4438;50.890;4.726;2023-06-14T03:12:34;10.73;;;9.73;;
8803;SDS011;4438;50.890;4.726;2023-06-14T03:15:01;10.37;;;9.47;;
8803;SDS011;4438;50.890;4.726;2023-06-14T03:17:27;11.13;;;10.07;;
8803;SDS011;4438;50.890;4.726;2023-06-14T03:19:55;10.10;;;9.20;;
8803;SDS011;4438;50.890;4.726;2023-06-14T03:22:21;11.20;;;10.20;;
8803;SDS011;4438;50.890;4.726;2023-06-14T03:24:47;10.73;;;9.63;;
8803;SDS011;4438;50.890;4.726;2023-06-14T03:27:13;10.13;;;9.23;;
8803;SDS011;4438;50.890;4.726;2023-06-14T03:29:39;10.17;;;9.37;;
8803;SDS011;4438;50.890;4.726;2023-06-14T03:32:06;10.23;;;9.43;;
8803;SDS011;4438;50.890;4.726;2023-06-14T03:34:32;10.70;;;9.80;;
8803;SDS011;4438;50.890;4.726;2023-06-14T03:36:58;11.30;;;10.20;;
8803;SDS011;4438;50.890;4.726;2023-06-14T03:39:24;10.50;;;9.70;;
8803;SDS011;4438;50.890;4.726;2023-06-14T03:41:50;11.80;;;10.80;;
8803;SDS011;4438;50.890;4.726;2023-06-14T03:44:17;10.03;;;9.23;;
8803;SDS011;4438;50.890;4.726;2023-06-14T03:46:44;10.93;;;10.10;;
8803;SDS011;4438;50.890;4.726;2023-06-14T03:49:10;11.50;;;10.53;;
8803;SDS011;4438;50.890;4.726;2023-06-14T03:51:37;10.53;;;9.73;;
8803;SDS011;4438;50.890;4.726;2023-06-14T03:54:03;11.93;;;10.83;;
8803;SDS011;4438;50.890;4.726;2023-06-14T03:56:29;11.87;;;10.77;;
8803;SDS011;4438;50.890;4.726;2023-06-14T03:58:55;11.73;;;10.73;;
8803;SDS011;4438;50.890;4.726;2023-06-14T04:01:21;12.00;;;11.00;;
8803;SDS011;4438;50.890;4.726;2023-06-14T04:03:52;11.43;;;10.53;;
8803;SDS011;4438;50.890;4.726;2023-06-14T04:06:18;12.33;;;11.33;;
8803;SDS011;4438;50.890;4.726;2023-06-14T04:08:45;11.97;;;11.03;;
8803;SDS011;4438;50.890;4.726;2023-06-14T04:11:11;11.47;;;10.47;;
8803;SDS011;4438;50.890;4.726;2023-06-14T04:13:37;11.77;;;10.67;;
8803;SDS011;4438;50.890;4.726;2023-06-14T04:16:04;11.63;;;10.50;;
8803;SDS011;4438;50.890;4.726;2023-06-14T04:18:30;11.50;;;10.40;;
8803;SDS011;4438;50.890;4.726;2023-06-14T04:20:56;11.10;;;10.20;;
8803;SDS011;4438;50.890;4.726;2023-06-14T04:23:22;11.37;;;10.37;;
8803;SDS011;4438;50.890;4.726;2023-06-14T04:25:48;11.53;;;10.57;;
8803;SDS011;4438;50.890;4.726;2023-06-14T04:28:15;11.67;;;10.67;;
8803;SDS011;4438;50.890;4.726;2023-06-14T04:30:42;11.73;;;10.73;;
8803;SDS011;4438;50.890;4.726;2023-06-14T04:33:09;10.90;;;9.90;;
8803;SDS011;4438;50.890;4.726;2023-06-14T04:35:36;11.67;;;10.57;;
8803;SDS011;4438;50.890;4.726;2023-06-14T04:38:03;11.80;;;10.60;;
8803;SDS011;4438;50.890;4.726;2023-06-14T04:40:35;12.53;;;11.33;;
8803;SDS011;4438;50.890;4.726;2023-06-14T04:43:08;11.20;;;10.30;;
8803;SDS011;4438;50.890;4.726;2023-06-14T04:45:34;12.07;;;10.97;;
8803;SDS011;4438;50.890;4.726;2023-06-14T04:48:02;12.10;;;11.00;;
8803;SDS011;4438;50.890;4.726;2023-06-14T04:50:28;12.20;;;11.10;;
8803;SDS011;4438;50.890;4.726;2023-06-14T04:52:58;10.90;;;10.00;;
8803;SDS011;4438;50.890;4.726;2023-06-14T04:55:24;11.33;;;10.33;;
8803;SDS011;4438;50.890;4.726;2023-06-14T04:57:51;10.73;;;9.83;;
8803;SDS011;4438;50.890;4.726;2023-06-14T05:00:20;12.03;;;10.93;;
8803;SDS011;4438;50.890;4.726;2023-06-14T05:02:46;10.57;;;9.53;;
8803;SDS011;4438;50.890;4.726;2023-06-14T05:05:14;11.77;;;10.67;;
8803;SDS011;4438;50.890;4.726;2023-06-14T05:07:40;11.07;;;10.03;;
8803;SDS011;4438;50.890;4.726;2023-06-14T05:10:07;10.73;;;9.70;;
8803;SDS011;4438;50.890;4.726;2023-06-14T05:12:33;10.87;;;9.90;;
8803;SDS011;4438;50.890;4.726;2023-06-14T05:14:59;10.03;;;9.13;;
8803;SDS011;4438;50.890;4.726;2023-06-14T05:17:25;10.47;;;9.57;;
8803;SDS011;4438;50.890;4.726;2023-06-14T05:19:53;10.70;;;9.60;;
8803;SDS011;4438;50.890;4.726;2023-06-14T05:22:20;10.60;;;9.60;;
8803;SDS011;4438;50.890;4.726;2023-06-14T05:24:46;10.80;;;9.70;;
8803;SDS011;4438;50.890;4.726;2023-06-14T05:27:13;11.47;;;10.37;;
8803;SDS011;4438;50.890;4.726;2023-06-14T05:29:39;10.90;;;9.90;;
8803;SDS011;4438;50.890;4.726;2023-06-14T05:32:05;10.93;;;9.87;;
8803;SDS011;4438;50.890;4.726;2023-06-14T05:34:32;11.10;;;10.00;;
8803;SDS011;4438;50.890;4.726;2023-06-14T05:36:58;10.73;;;9.83;;
8803;SDS011;4438;50.890;4.726;2023-06-14T05:39:24;10.60;;;9.50;;
8803;SDS011;4438;50.890;4.726;2023-06-14T05:41:50;10.47;;;9.57;;
8803;SDS011;4438;50.890;4.726;2023-06-14T05:44:16;10.80;;;9.80;;
8803;SDS011;4438;50.890;4.726;2023-06-14T05:46:43;12.03;;;9.80;;
8803;SDS011;4438;50.890;4.726;2023-06-14T05:49:09;12.07;;;10.77;;
8803;SDS011;4438;50.890;4.726;2023-06-14T05:51:36;20.80;;;18.63;;
8803;SDS011;4438;50.890;4.726;2023-06-14T05:54:03;11.33;;;10.17;;
8803;SDS011;4438;50.890;4.726;2023-06-14T05:56:29;11.33;;;10.03;;
8803;SDS011;4438;50.890;4.726;2023-06-14T05:58:55;11.30;;;10.20;;
8803;SDS011;4438;50.890;4.726;2023-06-14T06:01:21;10.90;;;9.90;;
8803;SDS011;4438;50.890;4.726;2023-06-14T06:03:47;11.27;;;10.10;;
8803;SDS011;4438;50.890;4.726;2023-06-14T06:06:13;10.87;;;9.83;;
8803;SDS011;4438;50.890;4.726;2023-06-14T06:08:40;10.03;;;9.13;;
8803;SDS011;4438;50.890;4.726;2023-06-14T06:11:06;10.53;;;9.43;;
8803;SDS011;4438;50.890;4.726;2023-06-14T06:13:32;11.57;;;10.07;;
8803;SDS011;4438;50.890;4.726;2023-06-14T06:15:58;10.83;;;9.93;;
8803;SDS011;4438;50.890;4.726;2023-06-14T06:18:25;12.50;;;10.70;;
8803;SDS011;4438;50.890;4.726;2023-06-14T06:20:51;10.10;;;9.30;;
8803;SDS011;4438;50.890;4.726;2023-06-14T06:23:17;10.50;;;9.40;;
8803;SDS011;4438;50.890;4.726;2023-06-14T06:25:43;10.47;;;9.57;;
8803;SDS011;4438;50.890;4.726;2023-06-14T06:28:09;9.60;;;8.60;;
8803;SDS011;4438;50.890;4.726;2023-06-14T06:30:36;10.07;;;9.07;;
8803;SDS011;4438;50.890;4.726;2023-06-14T06:33:02;11.00;;;8.93;;
8803;SDS011;4438;50.890;4.726;2023-06-14T06:35:28;11.03;;;9.40;;
8803;SDS011;4438;50.890;4.726;2023-06-14T06:37:55;10.07;;;9.07;;
8803;SDS011;4438;50.890;4.726;2023-06-14T06:40:22;11.23;;;9.27;;
8803;SDS011;4438;50.890;4.726;2023-06-14T06:42:48;9.67;;;8.77;;
8803;SDS011;4438;50.890;4.726;2023-06-14T06:45:15;12.60;;;9.60;;
8803;SDS011;4438;50.890;4.726;2023-06-14T06:47:41;10.17;;;8.93;;
8803;SDS011;4438;50.890;4.726;2023-06-14T06:50:07;10.40;;;9.43;;
8803;SDS011;4438;50.890;4.726;2023-06-14T06:52:34;10.77;;;9.67;;
8803;SDS011;4438;50.890;4.726;2023-06-14T06:55:00;9.43;;;8.63;;
8803;SDS011;4438;50.890;4.726;2023-06-14T06:57:27;12.77;;;9.20;;
8803;SDS011;4438;50.890;4.726;2023-06-14T06:59:54;9.97;;;9.07;;
8803;SDS011;4438;50.890;4.726;2023-06-14T07:02:20;9.37;;;8.57;;
8803;SDS011;4438;50.890;4.726;2023-06-14T07:04:46;10.43;;;9.23;;
8803;SDS011;4438;50.890;4.726;2023-06-14T07:07:12;10.83;;;8.70;;
8803;SDS011;4438;50.890;4.726;2023-06-14T07:09:38;11.97;;;8.97;;
8803;SDS011;4438;50.890;4.726;2023-06-14T07:12:06;10.07;;;9.03;;
8803;SDS011;4438;50.890;4.726;2023-06-14T07:14:33;9.70;;;8.67;;
8803;SDS011;4438;50.890;4.726;2023-06-14T07:16:59;9.47;;;8.60;;
8803;SDS011;4438;50.890;4.726;2023-06-14T07:19:25;10.13;;;9.20;;
8803;SDS011;4438;50.890;4.726;2023-06-14T07:21:51;9.77;;;8.77;;
8803;SDS011;4438;50.890;4.726;2023-06-14T07:24:17;9.90;;;8.97;;
8803;SDS011;4438;50.890;4.726;2023-06-14T07:26:45;10.53;;;8.37;;
8803;SDS011;4438;50.890;4.726;2023-06-14T07:29:13;9.63;;;8.67;;
8803;SDS011;4438;50.890;4.726;2023-06-14T07:31:39;10.57;;;8.07;;
8803;SDS011;4438;50.890;4.726;2023-06-14T07:34:05;9.37;;;8.13;;
8803;SDS011;4438;50.890;4.726;2023-06-14T07:36:31;8.97;;;8.10;;
8803;SDS011;4438;50.890;4.726;2023-06-14T07:38:57;9.00;;;8.20;;
8803;SDS011;4438;50.890;4.726;2023-06-14T07:41:24;8.93;;;8.23;;
8803;SDS011;4438;50.890;4.726;2023-06-14T07:43:50;10.00;;;8.47;;
8803;SDS011;4438;50.890;4.726;2023-06-14T07:46:16;9.43;;;8.23;;
8803;SDS011;4438;50.890;4.726;2023-06-14T07:48:43;8.90;;;8.10;;
8803;SDS011;4438;50.890;4.726;2023-06-14T07:51:09;9.40;;;8.40;;
8803;SDS011;4438;50.890;4.726;2023-06-14T07:53:35;9.60;;;8.57;;
8803;SDS011;4438;50.890;4.726;2023-06-14T07:56:01;9.50;;;8.50;;
8803;SDS011;4438;50.890;4.726;2023-06-14T07:58:27;9.03;;;8.20;;
8803;SDS011;4438;50.890;4.726;2023-06-14T08:00:53;9.13;;;8.23;;
8803;SDS011;4438;50.890;4.726;2023-06-14T08:03:20;11.97;;;8.07;;
8803;SDS011;4438;50.890;4.726;2023-06-14T08:05:47;9.07;;;8.17;;
8803;SDS011;4438;50.890;4.726;2023-06-14T08:08:13;10.03;;;8.17;;
8803;SDS011;4438;50.890;4.726;2023-06-14T08:10:40;9.47;;;8.60;;
8803;SDS011;4438;50.890;4.726;2023-06-14T08:13:06;13.00;;;9.37;;
8803;SDS011;4438;50.890;4.726;2023-06-14T08:15:32;9.50;;;8.70;;
8803;SDS011;4438;50.890;4.726;2023-06-14T08:17:58;9.43;;;8.57;;
8803;SDS011;4438;50.890;4.726;2023-06-14T08:20:25;10.00;;;9.00;;
8803;SDS011;4438;50.890;4.726;2023-06-14T08:22:51;10.87;;;8.57;;
8803;SDS011;4438;50.890;4.726;2023-06-14T08:25:21;9.03;;;8.17;;
8803;SDS011;4438;50.890;4.726;2023-06-14T08:27:47;9.80;;;8.43;;
8803;SDS011;4438;50.890;4.726;2023-06-14T08:30:14;9.27;;;8.37;;
8803;SDS011;4438;50.890;4.726;2023-06-14T08:32:40;9.10;;;8.13;;
8803;SDS011;4438;50.890;4.726;2023-06-14T08:35:06;9.10;;;8.30;;
8803;SDS011;4438;50.890;4.726;2023-06-14T08:37:33;9.67;;;8.50;;
8803;SDS011;4438;50.890;4.726;2023-06-14T08:40:04;9.27;;;7.80;;
8803;SDS011;4438;50.890;4.726;2023-06-14T08:42:32;8.70;;;7.90;;
8803;SDS011;4438;50.890;4.726;2023-06-14T08:44:58;8.43;;;7.63;;
8803;SDS011;4438;50.890;4.726;2023-06-14T08:47:25;10.23;;;7.90;;
8803;SDS011;4438;50.890;4.726;2023-06-14T08:49:54;9.40;;;8.40;;
8803;SDS011;4438;50.890;4.726;2023-06-14T08:52:22;9.73;;;8.07;;
8803;SDS011;4438;50.890;4.726;2023-06-14T08:54:48;9.03;;;7.03;;
8803;SDS011;4438;50.890;4.726;2023-06-14T08:57:15;9.43;;;7.30;;
8803;SDS011;4438;50.890;4.726;2023-06-14T08:59:45;9.07;;;8.10;;
8803;SDS011;4438;50.890;4.726;2023-06-14T09:02:14;9.17;;;7.80;;
8803;SDS011;4438;50.890;4.726;2023-06-14T09:04:43;16.90;;;8.53;;
8803;SDS011;4438;50.890;4.726;2023-06-14T09:07:10;11.47;;;7.20;;
8803;SDS011;4438;50.890;4.726;2023-06-14T09:09:39;10.63;;;7.83;;
8803;SDS011;4438;50.890;4.726;2023-06-14T09:12:07;7.87;;;7.17;;
8803;SDS011;4438;50.890;4.726;2023-06-14T09:14:36;9.07;;;7.67;;
8803;SDS011;4438;50.890;4.726;2023-06-14T09:17:05;8.37;;;7.57;;
8803;SDS011;4438;50.890;4.726;2023-06-14T09:19:31;8.83;;;7.47;;
8803;SDS011;4438;50.890;4.726;2023-06-14T09:21:57;7.63;;;6.87;;
8803;SDS011;4438;50.890;4.726;2023-06-14T09:24:26;7.97;;;7.03;;
8803;SDS011;4438;50.890;4.726;2023-06-14T09:26:52;7.63;;;6.87;;
8803;SDS011;4438;50.890;4.726;2023-06-14T09:29:19;7.63;;;6.83;;
8803;SDS011;4438;50.890;4.726;2023-06-14T09:31:48;7.80;;;7.10;;
8803;SDS011;4438;50.890;4.726;2023-06-14T09:34:15;8.13;;;7.20;;
8803;SDS011;4438;50.890;4.726;2023-06-14T09:36:44;7.37;;;6.67;;
8803;SDS011;4438;50.890;4.726;2023-06-14T09:39:10;7.73;;;6.60;;
8803;SDS011;4438;50.890;4.726;2023-06-14T09:41:40;7.20;;;6.50;;
8803;SDS011;4438;50.890;4.726;2023-06-14T09:44:07;7.37;;;6.37;;
8803;SDS011;4438;50.890;4.726;2023-06-14T09:46:34;7.50;;;6.70;;
8803;SDS011;4438;50.890;4.726;2023-06-14T09:49:01;7.70;;;6.90;;
8803;SDS011;4438;50.890;4.726;2023-06-14T09:51:27;7.73;;;7.00;;
8803;SDS011;4438;50.890;4.726;2023-06-14T09:53:58;6.80;;;6.03;;
8803;SDS011;4438;50.890;4.726;2023-06-14T09:56:29;11.50;;;6.83;;
8803;SDS011;4438;50.890;4.726;2023-06-14T09:58:56;8.40;;;6.87;;
8803;SDS011;4438;50.890;4.726;2023-06-14T10:01:22;7.93;;;7.13;;
8803;SDS011;4438;50.890;4.726;2023-06-14T10:04:04;7.40;;;6.50;;
8803;SDS011;4438;50.890;4.726;2023-06-14T10:06:31;8.00;;;6.87;;
8803;SDS011;4438;50.890;4.726;2023-06-14T10:08:58;8.03;;;6.70;;
8803;SDS011;4438;50.890;4.726;2023-06-14T10:11:28;7.03;;;6.33;;
8803;SDS011;4438;50.890;4.726;2023-06-14T10:13:57;7.00;;;6.30;;
8803;SDS011;4438;50.890;4.726;2023-06-14T10:19:11;6.37;;;5.87;;
8803;SDS011;4438;50.890;4.726;2023-06-14T10:24:10;7.50;;;6.03;;
8803;SDS011;4438;50.890;4.726;2023-06-14T10:26:40;7.13;;;6.43;;
8803;SDS011;4438;50.890;4.726;2023-06-14T10:29:15;7.30;;;6.53;;
8803;SDS011;4438;50.890;4.726;2023-06-14T10:31:42;10.33;;;6.60;;
8803;SDS011;4438;50.890;4.726;2023-06-14T10:34:09;7.30;;;6.60;;
8803;SDS011;4438;50.890;4.726;2023-06-14T10:36:35;6.47;;;5.40;;
8803;SDS011;4438;50.890;4.726;2023-06-14T10:41:28;6.00;;;5.50;;
8803;SDS011;4438;50.890;4.726;2023-06-14T10:46:39;7.30;;;5.87;;
8803;SDS011;4438;50.890;4.726;2023-06-14T10:49:05;6.30;;;5.50;;
8803;SDS011;4438;50.890;4.726;2023-06-14T10:51:38;7.10;;;5.60;;
8803;SDS011;4438;50.890;4.726;2023-06-14T10:54:11;7.07;;;5.43;;
8803;SDS011;4438;50.890;4.726;2023-06-14T10:56:48;5.87;;;5.30;;
8803;SDS011;4438;50.890;4.726;2023-06-14T10:59:14;5.83;;;5.33;;
8803;SDS011;4438;50.890;4.726;2023-06-14T11:02:11;7.57;;;5.17;;
8803;SDS011;4438;50.890;4.726;2023-06-14T11:04:32;7.23;;;5.30;;
8803;SDS011;4438;50.890;4.726;2023-06-14T11:07:43;5.80;;;5.30;;
8803;SDS011;4438;50.890;4.726;2023-06-14T11:12:19;10.33;;;5.53;;
8803;SDS011;4438;50.890;4.726;2023-06-14T11:14:47;7.63;;;4.73;;
8803;SDS011;4438;50.890;4.726;2023-06-14T11:17:13;6.47;;;5.30;;
8803;SDS011;4438;50.890;4.726;2023-06-14T11:19:39;5.20;;;4.70;;
8803;SDS011;4438;50.890;4.726;2023-06-14T11:22:05;5.07;;;4.67;;
8803;SDS011;4438;50.890;4.726;2023-06-14T11:24:32;6.93;;;4.77;;
8803;SDS011;4438;50.890;4.726;2023-06-14T11:26:58;5.60;;;4.65;;
8803;SDS011;4438;50.890;4.726;2023-06-14T11:29:24;5.00;;;4.60;;
8803;SDS011;4438;50.890;4.726;2023-06-14T11:31:50;5.70;;;5.10;;
8803;SDS011;4438;50.890;4.726;2023-06-14T11:34:17;5.30;;;4.88;;
8803;SDS011;4438;50.890;4.726;2023-06-14T11:36:43;5.87;;;4.83;;
8803;SDS011;4438;50.890;4.726;2023-06-14T11:39:11;7.70;;;5.18;;
8803;SDS011;4438;50.890;4.726;2023-06-14T11:41:44;6.60;;;5.30;;
8803;SDS011;4438;50.890;4.726;2023-06-14T11:44:10;5.43;;;5.00;;
8803;SDS011;4438;50.890;4.726;2023-06-14T11:46:37;9.95;;;5.15;;
8803;SDS011;4438;50.890;4.726;2023-06-14T11:49:03;7.30;;;5.32;;
8803;SDS011;4438;50.890;4.726;2023-06-14T11:51:30;5.57;;;5.03;;
8803;SDS011;4438;50.890;4.726;2023-06-14T11:53:56;5.93;;;5.15;;
8803;SDS011;4438;50.890;4.726;2023-06-14T11:56:23;6.32;;;5.70;;
8803;SDS011;4438;50.890;4.726;2023-06-14T11:58:50;6.25;;;4.93;;
8803;SDS011;4438;50.890;4.726;2023-06-14T12:01:16;5.22;;;4.72;;
8803;SDS011;4438;50.890;4.726;2023-06-14T12:03:49;5.60;;;5.10;;
8803;SDS011;4438;50.890;4.726;2023-06-14T12:06:15;5.40;;;4.95;;
8803;SDS011;4438;50.890;4.726;2023-06-14T12:08:43;7.15;;;4.70;;
8803;SDS011;4438;50.890;4.726;2023-06-14T12:11:13;5.70;;;5.13;;
8803;SDS011;4438;50.890;4.726;2023-06-14T12:13:43;5.32;;;4.85;;
8803;SDS011;4438;50.890;4.726;2023-06-14T12:16:10;5.68;;;4.15;;
8803;SDS011;4438;50.890;4.726;2023-06-14T12:18:37;5.65;;;4.50;;
8803;SDS011;4438;50.890;4.726;2023-06-14T12:21:07;6.80;;;4.30;;
8803;SDS011;4438;50.890;4.726;2023-06-14T12:23:53;6.45;;;4.47;;
8803;SDS011;4438;50.890;4.726;2023-06-14T12:26:19;4.32;;;4.03;;
8803;SDS011;4438;50.890;4.726;2023-06-14T12:28:46;5.13;;;4.30;;
8803;SDS011;4438;50.890;4.726;2023-06-14T12:31:14;6.45;;;4.20;;
8803;SDS011;4438;50.890;4.726;2023-06-14T12:33:41;4.88;;;4.15;;
8803;SDS011;4438;50.890;4.726;2023-06-14T12:36:07;4.72;;;4.32;;
8803;SDS011;4438;50.890;4.726;2023-06-14T12:38:34;5.43;;;4.32;;
8803;SDS011;4438;50.890;4.726;2023-06-14T12:41:00;6.45;;;4.10;;
8803;SDS011;4438;50.890;4.726;2023-06-14T12:43:26;5.15;;;4.40;;
8803;SDS011;4438;50.890;4.726;2023-06-14T12:45:53;5.05;;;4.30;;
8803;SDS011;4438;50.890;4.726;2023-06-14T12:48:19;4.20;;;3.85;;
8803;SDS011;4438;50.890;4.726;2023-06-14T12:50:46;4.32;;;3.92;;
8803;SDS011;4438;50.890;4.726;2023-06-14T12:53:12;4.13;;;3.70;;
8803;SDS011;4438;50.890;4.726;2023-06-14T12:55:38;5.35;;;3.80;;
8803;SDS011;4438;50.890;4.726;2023-06-14T12:58:04;5.60;;;3.92;;
8803;SDS011;4438;50.890;4.726;2023-06-14T13:00:30;3.88;;;3.47;;
8803;SDS011;4438;50.890;4.726;2023-06-14T13:02:57;4.10;;;3.70;;
8803;SDS011;4438;50.890;4.726;2023-06-14T13:05:23;7.43;;;3.50;;
8803;SDS011;4438;50.890;4.726;2023-06-14T13:07:49;7.15;;;3.28;;
8803;SDS011;4438;50.890;4.726;2023-06-14T13:10:16;3.50;;;3.20;;
8803;SDS011;4438;50.890;4.726;2023-06-14T13:12:42;4.05;;;3.30;;
8803;SDS011;4438;50.890;4.726;2023-06-14T13:15:08;4.53;;;3.10;;
8803;SDS011;4438;50.890;4.726;2023-06-14T13:17:35;6.15;;;3.50;;
8803;SDS011;4438;50.890;4.726;2023-06-14T13:20:06;7.00;;;3.22;;
8803;SDS011;4438;50.890;4.726;2023-06-14T13:22:33;3.80;;;3.50;;
8803;SDS011;4438;50.890;4.726;2023-06-14T13:25:00;4.05;;;2.72;;
8803;SDS011;4438;50.890;4.726;2023-06-14T13:27:26;4.55;;;2.63;;
8803;SDS011;4438;50.890;4.726;2023-06-14T13:29:53;3.55;;;2.53;;
8803;SDS011;4438;50.890;4.726;2023-06-14T13:32:20;3.67;;;2.70;;
8803;SDS011;4438;50.890;4.726;2023-06-14T13:34:46;3.40;;;2.63;;
8803;SDS011;4438;50.890;4.726;2023-06-14T13:37:12;3.33;;;2.58;;
8803;SDS011;4438;50.890;4.726;2023-06-14T13:39:38;2.90;;;2.35;;
8803;SDS011;4438;50.890;4.726;2023-06-14T13:42:05;3.17;;;2.58;;
8803;SDS011;4438;50.890;4.726;2023-06-14T13:44:31;3.22;;;2.40;;
8803;SDS011;4438;50.890;4.726;2023-06-14T13:46:57;3.05;;;2.60;;
8803;SDS011;4438;50.890;4.726;2023-06-14T13:49:23;6.15;;;2.38;;
8803;SDS011;4438;50.890;4.726;2023-06-14T13:51:49;3.33;;;2.35;;
8803;SDS011;4438;50.890;4.726;2023-06-14T13:54:18;2.92;;;2.63;;
8803;SDS011;4438;50.890;4.726;2023-06-14T13:56:45;5.35;;;2.50;;
8803;SDS011;4438;50.890;4.726;2023-06-14T13:59:11;3.47;;;2.55;;
8803;SDS011;4438;50.890;4.726;2023-06-14T14:01:37;4.13;;;2.50;;
8803;SDS011;4438;50.890;4.726;2023-06-14T14:04:04;2.80;;;2.45;;
8803;SDS011;4438;50.890;4.726;2023-06-14T14:06:30;3.00;;;2.72;;
8803;SDS011;4438;50.890;4.726;2023-06-14T14:08:56;4.65;;;2.83;;
8803;SDS011;4438;50.890;4.726;2023-06-14T14:11:22;2.63;;;2.42;;
8803;SDS011;4438;50.890;4.726;2023-06-14T14:13:48;3.67;;;2.85;;
8803;SDS011;4438;50.890;4.726;2023-06-14T14:16:15;3.63;;;2.78;;
8803;SDS011;4438;50.890;4.726;2023-06-14T14:18:41;3.65;;;2.92;;
8803;SDS011;4438;50.890;4.726;2023-06-14T14:21:07;4.65;;;3.00;;
8803;SDS011;4438;50.890;4.726;2023-06-14T14:23:34;3.28;;;2.92;;
8803;SDS011;4438;50.890;4.726;2023-06-14T14:26:00;3.03;;;2.45;;
8803;SDS011;4438;50.890;4.726;2023-06-14T14:28:29;4.30;;;2.67;;
8803;SDS011;4438;50.890;4.726;2023-06-14T14:30:55;3.20;;;2.83;;
8803;SDS011;4438;50.890;4.726;2023-06-14T14:33:21;3.60;;;2.72;;
8803;SDS011;4438;50.890;4.726;2023-06-14T14:35:48;2.90;;;2.70;;
8803;SDS011;4438;50.890;4.726;2023-06-14T14:38:14;4.65;;;2.65;;
8803;SDS011;4438;50.890;4.726;2023-06-14T14:40:41;3.70;;;2.80;;
8803;SDS011;4438;50.890;4.726;2023-06-14T14:43:07;2.80;;;2.60;;
8803;SDS011;4438;50.890;4.726;2023-06-14T14:45:33;3.92;;;2.50;;
8803;SDS011;4438;50.890;4.726;2023-06-14T14:48:00;3.28;;;2.78;;
8803;SDS011;4438;50.890;4.726;2023-06-14T14:50:27;3.67;;;2.63;;
8803;SDS011;4438;50.890;4.726;2023-06-14T14:52:53;3.08;;;2.78;;
8803;SDS011;4438;50.890;4.726;2023-06-14T14:55:20;4.40;;;3.13;;
8803;SDS011;4438;50.890;4.726;2023-06-14T14:57:46;3.70;;;2.80;;
8803;SDS011;4438;50.890;4.726;2023-06-14T15:00:16;3.38;;;3.05;;
8803;SDS011;4438;50.890;4.726;2023-06-14T15:02:42;3.30;;;2.88;;
8803;SDS011;4438;50.890;4.726;2023-06-14T15:05:08;4.95;;;3.00;;
8803;SDS011;4438;50.890;4.726;2023-06-14T15:07:34;5.72;;;2.80;;
8803;SDS011;4438;50.890;4.726;2023-06-14T15:10:01;3.15;;;2.85;;
8803;SDS011;4438;50.890;4.726;2023-06-14T15:12:27;3.03;;;2.80;;
8803;SDS011;4438;50.890;4.726;2023-06-14T15:14:53;3.10;;;2.88;;
8803;SDS011;4438;50.890;4.726;2023-06-14T15:17:19;4.18;;;3.00;;
8803;SDS011;4438;50.890;4.726;2023-06-14T15:19:46;3.10;;;2.70;;
8803;SDS011;4438;50.890;4.726;2023-06-14T15:22:16;3.28;;;2.97;;
8803;SDS011;4438;50.890;4.726;2023-06-14T15:24:42;5.22;;;2.97;;
8803;SDS011;4438;50.890;4.726;2023-06-14T15:27:09;4.22;;;3.00;;